sensor_id;sensor_type;location;lat;lon;timestamp;P1;durP1;ratioP1;P2;durP2;ratioP2
6292;SDS011;3179;54.350;10.102;2024-03-02T00:00:49;28.40;;;18.50;;
6292;SDS011;3179;54.350;10.102;2024-03-02T00:03:17;26.00;;;18.27;;
6292;SDS011;3179;54.350;10.102;2024-03-02T00:05:46;27.63;;;18.07;;
6292;SDS011;3179;54.350;10.102;2024-03-02T00:08:17;29.33;;;19.33;;
6292;SDS011;3179;54.350;10.102;2024-03-02T00:10:51;29.73;;;18.63;;
6292;SDS011;3179;54.350;10.102;2024-03-02T00:13:23;27.47;;;19.53;;
6292;SDS011;3179;54.350;10.102;2024-03-02T00:15:51;29.03;;;20.17;;
6292;SDS011;3179;54.350;10.102;2024-03-02T00:18:20;27.33;;;17.83;;
6292;SDS011;3179;54.350;10.102;2024-03-02T00:20:53;29.80;;;19.13;;
6292;SDS011;3179;54.350;10.102;2024-03-02T00:23:22;22.13;;;15.70;;
6292;SDS011;3179;54.350;10.102;2024-03-02T00:25:50;28.23;;;17.70;;
6292;SDS011;3179;54.350;10.102;2024-03-02T00:28:19;26.50;;;17.70;;
6292;SDS011;3179;54.350;10.102;2024-03-02T00:30:59;26.77;;;17.80;;
6292;SDS011;3179;54.350;10.102;2024-03-02T00:33:30;25.40;;;16.43;;
6292;SDS011;3179;54.350;10.102;2024-03-02T00:36:00;26.97;;;18.10;;
6292;SDS011;3179;54.350;10.102;2024-03-02T00:38:26;26.67;;;18.47;;
6292;SDS011;3179;54.350;10.102;2024-03-02T00:40:54;28.63;;;18.40;;
6292;SDS011;3179;54.350;10.102;2024-03-02T00:46:09;28.00;;;17.60;;
6292;SDS011;3179;54.350;10.102;2024-03-02T00:48:38;23.60;;;16.20;;
6292;SDS011;3179;54.350;10.102;2024-03-02T00:51:07;25.60;;;18.47;;
6292;SDS011;3179;54.350;10.102;2024-03-02T00:53:34;26.73;;;18.33;;
6292;SDS011;3179;54.350;10.102;2024-03-02T00:56:01;27.40;;;18.10;;
6292;SDS011;3179;54.350;10.102;2024-03-02T00:58:28;27.43;;;18.13;;
6292;SDS011;3179;54.350;10.102;2024-03-02T01:00:55;25.43;;;17.60;;
6292;SDS011;3179;54.350;10.102;2024-03-02T01:03:22;27.33;;;17.80;;
6292;SDS011;3179;54.350;10.102;2024-03-02T01:05:49;29.63;;;19.20;;
6292;SDS011;3179;54.350;10.102;2024-03-02T01:08:17;28.67;;;18.93;;
6292;SDS011;3179;54.350;10.102;2024-03-02T01:10:44;29.90;;;19.50;;
6292;SDS011;3179;54.350;10.102;2024-03-02T01:13:11;29.93;;;19.70;;
6292;SDS011;3179;54.350;10.102;2024-03-02T01:15:38;30.87;;;18.70;;
6292;SDS011;3179;54.350;10.102;2024-03-02T01:18:05;30.50;;;20.60;;
6292;SDS011;3179;54.350;10.102;2024-03-02T01:20:32;31.63;;;19.97;;
6292;SDS011;3179;54.350;10.102;2024-03-02T01:22:58;30.53;;;19.93;;
6292;SDS011;3179;54.350;10.102;2024-03-02T01:25:27;30.60;;;20.60;;
6292;SDS011;3179;54.350;10.102;2024-03-02T01:27:53;29.57;;;19.80;;
6292;SDS011;3179;54.350;10.102;2024-03-02T01:30:20;31.13;;;20.63;;
6292;SDS011;3179;54.350;10.102;2024-03-02T01:32:47;28.37;;;19.17;;
6292;SDS011;3179;54.350;10.102;2024-03-02T01:35:14;32.27;;;19.10;;
6292;SDS011;3179;54.350;10.102;2024-03-02T01:37:41;27.70;;;19.83;;
6292;SDS011;3179;54.350;10.102;2024-03-02T01:40:09;30.53;;;18.37;;
6292;SDS011;3179;54.350;10.102;2024-03-02T01:42:38;29.33;;;19.87;;
6292;SDS011;3179;54.350;10.102;2024-03-02T01:45:06;32.53;;;21.30;;
6292;SDS011;3179;54.350;10.102;2024-03-02T01:47:33;30.50;;;20.10;;
6292;SDS011;3179;54.350;10.102;2024-03-02T01:50:00;37.50;;;23.80;;
6292;SDS011;3179;54.350;10.102;2024-03-02T01:52:27;34.50;;;22.30;;
6292;SDS011;3179;54.350;10.102;2024-03-02T01:54:54;36.67;;;23.37;;
6292;SDS011;3179;54.350;10.102;2024-03-02T01:57:22;28.27;;;20.33;;
6292;SDS011;3179;54.350;10.102;2024-03-02T01:59:50;30.40;;;21.80;;
6292;SDS011;3179;54.350;10.102;2024-03-02T02:02:18;30.67;;;20.30;;
6292;SDS011;3179;54.350;10.102;2024-03-02T02:04:45;35.43;;;23.37;;
6292;SDS011;3179;54.350;10.102;2024-03-02T02:07:12;36.90;;;23.13;;
6292;SDS011;3179;54.350;10.102;2024-03-02T02:09:39;34.87;;;22.60;;
6292;SDS011;3179;54.350;10.102;2024-03-02T02:12:07;31.30;;;20.67;;
6292;SDS011;3179;54.350;10.102;2024-03-02T02:14:35;31.73;;;20.70;;
6292;SDS011;3179;54.350;10.102;2024-03-02T02:17:03;29.03;;;19.50;;
6292;SDS011;3179;54.350;10.102;2024-03-02T02:19:30;30.00;;;20.30;;
6292;SDS011;3179;54.350;10.102;2024-03-02T02:21:58;31.20;;;20.20;;
6292;SDS011;3179;54.350;10.102;2024-03-02T02:24:25;33.13;;;21.53;;
6292;SDS011;3179;54.350;10.102;2024-03-02T02:26:52;30.97;;;21.27;;
6292;SDS011;3179;54.350;10.102;2024-03-02T02:29:19;30.60;;;20.13;;
6292;SDS011;3179;54.350;10.102;2024-03-02T02:31:46;31.97;;;20.60;;
6292;SDS011;3179;54.350;10.102;2024-03-02T02:34:13;32.67;;;20.83;;
6292;SDS011;3179;54.350;10.102;2024-03-02T02:36:40;36.40;;;23.97;;
6292;SDS011;3179;54.350;10.102;2024-03-02T02:39:10;33.50;;;21.03;;
6292;SDS011;3179;54.350;10.102;2024-03-02T02:41:40;37.40;;;20.77;;
6292;SDS011;3179;54.350;10.102;2024-03-02T02:44:06;32.40;;;20.80;;
6292;SDS011;3179;54.350;10.102;2024-03-02T02:46:33;34.57;;;22.00;;
6292;SDS011;3179;54.350;10.102;2024-03-02T02:49:00;32.57;;;21.17;;
6292;SDS011;3179;54.350;10.102;2024-03-02T02:51:27;34.73;;;21.83;;
6292;SDS011;3179;54.350;10.102;2024-03-02T02:53:54;34.37;;;21.60;;
6292;SDS011;3179;54.350;10.102;2024-03-02T02:56:22;34.43;;;22.30;;
6292;SDS011;3179;54.350;10.102;2024-03-02T02:58:49;39.93;;;24.50;;
6292;SDS011;3179;54.350;10.102;2024-03-02T03:01:16;33.80;;;22.50;;
6292;SDS011;3179;54.350;10.102;2024-03-02T03:03:43;36.90;;;23.57;;
6292;SDS011;3179;54.350;10.102;2024-03-02T03:06:10;32.07;;;22.87;;
6292;SDS011;3179;54.350;10.102;2024-03-02T03:08:37;33.77;;;22.07;;
6292;SDS011;3179;54.350;10.102;2024-03-02T03:11:04;35.60;;;22.20;;
6292;SDS011;3179;54.350;10.102;2024-03-02T03:13:33;40.27;;;23.37;;
6292;SDS011;3179;54.350;10.102;2024-03-02T03:16:00;38.10;;;23.43;;
6292;SDS011;3179;54.350;10.102;2024-03-02T03:18:28;37.10;;;23.83;;
6292;SDS011;3179;54.350;10.102;2024-03-02T03:20:54;31.60;;;20.37;;
6292;SDS011;3179;54.350;10.102;2024-03-02T03:23:21;35.33;;;24.20;;
6292;SDS011;3179;54.350;10.102;2024-03-02T03:25:48;40.10;;;24.17;;
6292;SDS011;3179;54.350;10.102;2024-03-02T03:28:15;36.47;;;23.40;;
6292;SDS011;3179;54.350;10.102;2024-03-02T03:30:43;34.00;;;22.40;;
6292;SDS011;3179;54.350;10.102;2024-03-02T03:33:10;30.37;;;21.30;;
6292;SDS011;3179;54.350;10.102;2024-03-02T03:35:37;34.93;;;23.37;;
6292;SDS011;3179;54.350;10.102;2024-03-02T03:38:04;40.30;;;24.83;;
6292;SDS011;3179;54.350;10.102;2024-03-02T03:40:30;38.87;;;23.93;;
6292;SDS011;3179;54.350;10.102;2024-03-02T03:42:57;35.20;;;22.63;;
6292;SDS011;3179;54.350;10.102;2024-03-02T03:45:25;38.33;;;23.30;;
6292;SDS011;3179;54.350;10.102;2024-03-02T03:47:53;47.37;;;23.80;;
6292;SDS011;3179;54.350;10.102;2024-03-02T03:50:20;37.60;;;24.03;;
6292;SDS011;3179;54.350;10.102;2024-03-02T03:52:47;34.63;;;23.37;;
6292;SDS011;3179;54.350;10.102;2024-03-02T03:55:14;38.00;;;23.77;;
6292;SDS011;3179;54.350;10.102;2024-03-02T03:57:41;37.70;;;23.60;;
6292;SDS011;3179;54.350;10.102;2024-03-02T04:00:08;35.17;;;23.30;;
6292;SDS011;3179;54.350;10.102;2024-03-02T04:02:37;35.07;;;21.17;;
6292;SDS011;3179;54.350;10.102;2024-03-02T04:05:05;38.60;;;24.97;;
6292;SDS011;3179;54.350;10.102;2024-03-02T04:07:35;31.43;;;23.70;;
6292;SDS011;3179;54.350;10.102;2024-03-02T04:10:06;38.17;;;23.93;;
6292;SDS011;3179;54.350;10.102;2024-03-02T04:12:34;33.50;;;22.50;;
6292;SDS011;3179;54.350;10.102;2024-03-02T04:15:02;37.73;;;23.93;;
6292;SDS011;3179;54.350;10.102;2024-03-02T04:17:31;38.70;;;23.23;;
6292;SDS011;3179;54.350;10.102;2024-03-02T04:19:58;37.97;;;24.47;;
6292;SDS011;3179;54.350;10.102;2024-03-02T04:22:27;36.70;;;24.20;;
6292;SDS011;3179;54.350;10.102;2024-03-02T04:24:54;36.40;;;23.67;;
6292;SDS011;3179;54.350;10.102;2024-03-02T04:27:20;36.40;;;23.40;;
6292;SDS011;3179;54.350;10.102;2024-03-02T04:29:47;36.60;;;22.90;;
6292;SDS011;3179;54.350;10.102;2024-03-02T04:32:14;34.60;;;23.20;;
6292;SDS011;3179;54.350;10.102;2024-03-02T04:34:41;38.17;;;25.00;;
6292;SDS011;3179;54.350;10.102;2024-03-02T04:37:09;32.60;;;21.90;;
6292;SDS011;3179;54.350;10.102;2024-03-02T04:39:40;39.10;;;24.43;;
6292;SDS011;3179;54.350;10.102;2024-03-02T04:42:07;38.53;;;26.10;;
6292;SDS011;3179;54.350;10.102;2024-03-02T04:44:34;38.13;;;24.10;;
6292;SDS011;3179;54.350;10.102;2024-03-02T04:47:02;32.67;;;23.40;;
6292;SDS011;3179;54.350;10.102;2024-03-02T04:49:29;36.00;;;22.93;;
6292;SDS011;3179;54.350;10.102;2024-03-02T04:51:56;33.20;;;23.20;;
6292;SDS011;3179;54.350;10.102;2024-03-02T04:54:23;36.73;;;23.53;;
6292;SDS011;3179;54.350;10.102;2024-03-02T04:56:51;34.40;;;24.20;;
6292;SDS011;3179;54.350;10.102;2024-03-02T04:59:18;39.70;;;26.03;;
6292;SDS011;3179;54.350;10.102;2024-03-02T05:01:45;40.30;;;26.10;;
6292;SDS011;3179;54.350;10.102;2024-03-02T05:04:12;39.97;;;24.90;;
6292;SDS011;3179;54.350;10.102;2024-03-02T05:06:39;36.00;;;22.90;;
6292;SDS011;3179;54.350;10.102;2024-03-02T05:09:06;32.40;;;21.93;;
6292;SDS011;3179;54.350;10.102;2024-03-02T05:11:34;33.17;;;24.17;;
6292;SDS011;3179;54.350;10.102;2024-03-02T05:14:20;35.17;;;22.27;;
6292;SDS011;3179;54.350;10.102;2024-03-02T05:16:46;36.40;;;24.20;;
6292;SDS011;3179;54.350;10.102;2024-03-02T05:19:13;35.50;;;24.33;;
6292;SDS011;3179;54.350;10.102;2024-03-02T05:21:40;38.43;;;24.57;;
6292;SDS011;3179;54.350;10.102;2024-03-02T05:24:07;40.90;;;23.77;;
6292;SDS011;3179;54.350;10.102;2024-03-02T05:26:34;34.50;;;22.40;;
6292;SDS011;3179;54.350;10.102;2024-03-02T05:29:01;36.50;;;23.80;;
6292;SDS011;3179;54.350;10.102;2024-03-02T05:31:29;37.77;;;25.23;;
6292;SDS011;3179;54.350;10.102;2024-03-02T05:33:56;37.80;;;24.33;;
6292;SDS011;3179;54.350;10.102;2024-03-02T05:36:23;41.03;;;26.00;;
6292;SDS011;3179;54.350;10.102;2024-03-02T05:38:49;44.17;;;26.10;;
6292;SDS011;3179;54.350;10.102;2024-03-02T05:41:16;42.80;;;24.87;;
6292;SDS011;3179;54.350;10.102;2024-03-02T05:43:43;40.40;;;25.00;;
6292;SDS011;3179;54.350;10.102;2024-03-02T05:46:10;40.97;;;25.30;;
6292;SDS011;3179;54.350;10.102;2024-03-02T05:48:38;39.43;;;25.00;;
6292;SDS011;3179;54.350;10.102;2024-03-02T05:51:05;38.17;;;24.40;;
6292;SDS011;3179;54.350;10.102;2024-03-02T05:53:32;35.53;;;24.67;;
6292;SDS011;3179;54.350;10.102;2024-03-02T05:55:59;39.63;;;24.27;;
6292;SDS011;3179;54.350;10.102;2024-03-02T05:58:26;38.97;;;24.90;;
6292;SDS011;3179;54.350;10.102;2024-03-02T06:01:03;39.43;;;25.57;;
6292;SDS011;3179;54.350;10.102;2024-03-02T06:03:30;32.10;;;22.70;;
6292;SDS011;3179;54.350;10.102;2024-03-02T06:05:59;33.73;;;22.73;;
6292;SDS011;3179;54.350;10.102;2024-03-02T06:08:26;34.13;;;22.77;;
6292;SDS011;3179;54.350;10.102;2024-03-02T06:10:53;39.20;;;24.43;;
6292;SDS011;3179;54.350;10.102;2024-03-02T06:13:21;37.97;;;24.40;;
6292;SDS011;3179;54.350;10.102;2024-03-02T06:15:48;37.60;;;24.50;;
6292;SDS011;3179;54.350;10.102;2024-03-02T06:18:15;31.70;;;21.63;;
6292;SDS011;3179;54.350;10.102;2024-03-02T06:20:41;38.67;;;24.53;;
6292;SDS011;3179;54.350;10.102;2024-03-02T06:23:10;35.13;;;24.50;;
6292;SDS011;3179;54.350;10.102;2024-03-02T06:25:37;36.10;;;23.43;;
6292;SDS011;3179;54.350;10.102;2024-03-02T06:28:04;32.27;;;21.90;;
6292;SDS011;3179;54.350;10.102;2024-03-02T06:30:31;35.30;;;22.93;;
6292;SDS011;3179;54.350;10.102;2024-03-02T06:32:58;35.90;;;24.60;;
6292;SDS011;3179;54.350;10.102;2024-03-02T06:35:25;39.87;;;25.63;;
6292;SDS011;3179;54.350;10.102;2024-03-02T06:37:52;33.43;;;22.30;;
6292;SDS011;3179;54.350;10.102;2024-03-02T06:40:20;34.27;;;21.90;;
6292;SDS011;3179;54.350;10.102;2024-03-02T06:42:47;36.50;;;22.33;;
6292;SDS011;3179;54.350;10.102;2024-03-02T06:45:14;31.67;;;22.03;;
6292;SDS011;3179;54.350;10.102;2024-03-02T06:47:41;32.40;;;22.23;;
6292;SDS011;3179;54.350;10.102;2024-03-02T06:50:08;37.63;;;22.37;;
6292;SDS011;3179;54.350;10.102;2024-03-02T06:52:37;32.57;;;21.27;;
6292;SDS011;3179;54.350;10.102;2024-03-02T06:55:04;31.70;;;20.50;;
6292;SDS011;3179;54.350;10.102;2024-03-02T06:57:33;30.47;;;20.97;;
6292;SDS011;3179;54.350;10.102;2024-03-02T07:00:00;31.70;;;21.87;;
6292;SDS011;3179;54.350;10.102;2024-03-02T07:02:30;30.20;;;20.87;;
6292;SDS011;3179;54.350;10.102;2024-03-02T07:04:57;30.33;;;20.83;;
6292;SDS011;3179;54.350;10.102;2024-03-02T07:07:24;34.43;;;21.10;;
6292;SDS011;3179;54.350;10.102;2024-03-02T07:09:51;29.53;;;20.37;;
6292;SDS011;3179;54.350;10.102;2024-03-02T07:12:18;28.57;;;18.23;;
6292;SDS011;3179;54.350;10.102;2024-03-02T07:14:46;28.93;;;20.53;;
6292;SDS011;3179;54.350;10.102;2024-03-02T07:17:36;28.83;;;19.53;;
6292;SDS011;3179;54.350;10.102;2024-03-02T07:20:03;28.60;;;20.37;;
6292;SDS011;3179;54.350;10.102;2024-03-02T07:22:31;26.30;;;18.50;;
6292;SDS011;3179;54.350;10.102;2024-03-02T07:24:59;27.10;;;19.80;;
6292;SDS011;3179;54.350;10.102;2024-03-02T07:27:26;29.00;;;19.50;;
6292;SDS011;3179;54.350;10.102;2024-03-02T07:29:54;31.27;;;20.40;;
6292;SDS011;3179;54.350;10.102;2024-03-02T07:32:21;29.40;;;19.07;;
6292;SDS011;3179;54.350;10.102;2024-03-02T07:34:48;26.43;;;18.70;;
6292;SDS011;3179;54.350;10.102;2024-03-02T07:37:16;28.93;;;19.53;;
6292;SDS011;3179;54.350;10.102;2024-03-02T07:39:43;31.87;;;18.97;;
6292;SDS011;3179;54.350;10.102;2024-03-02T07:42:11;27.20;;;19.27;;
6292;SDS011;3179;54.350;10.102;2024-03-02T07:44:38;33.57;;;21.30;;
6292;SDS011;3179;54.350;10.102;2024-03-02T07:47:06;25.00;;;18.90;;
6292;SDS011;3179;54.350;10.102;2024-03-02T07:49:33;28.50;;;20.00;;
6292;SDS011;3179;54.350;10.102;2024-03-02T07:52:00;28.30;;;20.30;;
6292;SDS011;3179;54.350;10.102;2024-03-02T07:54:27;26.97;;;19.57;;
6292;SDS011;3179;54.350;10.102;2024-03-02T07:56:54;31.27;;;21.40;;
6292;SDS011;3179;54.350;10.102;2024-03-02T07:59:21;29.00;;;19.40;;
6292;SDS011;3179;54.350;10.102;2024-03-02T08:01:49;34.37;;;21.40;;
6292;SDS011;3179;54.350;10.102;2024-03-02T08:04:17;27.97;;;17.50;;
6292;SDS011;3179;54.350;10.102;2024-03-02T08:06:45;32.10;;;21.03;;
6292;SDS011;3179;54.350;10.102;2024-03-02T08:09:12;26.87;;;18.40;;
6292;SDS011;3179;54.350;10.102;2024-03-02T08:11:39;28.17;;;19.10;;
6292;SDS011;3179;54.350;10.102;2024-03-02T08:14:06;31.13;;;21.00;;
6292;SDS011;3179;54.350;10.102;2024-03-02T08:16:32;28.07;;;19.30;;
6292;SDS011;3179;54.350;10.102;2024-03-02T08:18:59;25.50;;;18.17;;
6292;SDS011;3179;54.350;10.102;2024-03-02T08:21:28;32.10;;;21.20;;
6292;SDS011;3179;54.350;10.102;2024-03-02T08:23:55;27.57;;;18.10;;
6292;SDS011;3179;54.350;10.102;2024-03-02T08:26:23;25.23;;;17.13;;
6292;SDS011;3179;54.350;10.102;2024-03-02T08:28:50;25.03;;;17.50;;
6292;SDS011;3179;54.350;10.102;2024-03-02T08:31:17;23.20;;;16.50;;
6292;SDS011;3179;54.350;10.102;2024-03-02T08:33:43;23.83;;;15.73;;
6292;SDS011;3179;54.350;10.102;2024-03-02T08:36:09;28.30;;;20.53;;
6292;SDS011;3179;54.350;10.102;2024-03-02T08:38:38;27.20;;;18.73;;
6292;SDS011;3179;54.350;10.102;2024-03-02T08:41:05;26.57;;;18.90;;
6292;SDS011;3179;54.350;10.102;2024-03-02T08:43:33;24.33;;;17.60;;
6292;SDS011;3179;54.350;10.102;2024-03-02T08:46:00;25.50;;;16.67;;
6292;SDS011;3179;54.350;10.102;2024-03-02T08:48:27;29.00;;;18.70;;
6292;SDS011;3179;54.350;10.102;2024-03-02T08:50:54;26.93;;;17.97;;
6292;SDS011;3179;54.350;10.102;2024-03-02T08:53:21;28.30;;;20.27;;
6292;SDS011;3179;54.350;10.102;2024-03-02T08:55:49;24.60;;;17.93;;
6292;SDS011;3179;54.350;10.102;2024-03-02T08:58:16;28.87;;;19.43;;
6292;SDS011;3179;54.350;10.102;2024-03-02T09:00:43;28.13;;;20.20;;
6292;SDS011;3179;54.350;10.102;2024-03-02T09:03:10;26.37;;;17.57;;
6292;SDS011;3179;54.350;10.102;2024-03-02T09:05:37;26.43;;;18.23;;
6292;SDS011;3179;54.350;10.102;2024-03-02T09:08:04;26.70;;;17.57;;
6292;SDS011;3179;54.350;10.102;2024-03-02T09:10:32;28.93;;;18.23;;
6292;SDS011;3179;54.350;10.102;2024-03-02T09:13:01;26.90;;;18.73;;
6292;SDS011;3179;54.350;10.102;2024-03-02T09:15:28;25.83;;;19.30;;
6292;SDS011;3179;54.350;10.102;2024-03-02T09:17:55;24.77;;;16.23;;
6292;SDS011;3179;54.350;10.102;2024-03-02T09:20:21;26.77;;;17.90;;
6292;SDS011;3179;54.350;10.102;2024-03-02T09:22:48;22.67;;;16.40;;
6292;SDS011;3179;54.350;10.102;2024-03-02T09:25:15;24.00;;;17.00;;
6292;SDS011;3179;54.350;10.102;2024-03-02T09:27:42;23.03;;;16.57;;
6292;SDS011;3179;54.350;10.102;2024-03-02T09:30:11;22.53;;;16.17;;
6292;SDS011;3179;54.350;10.102;2024-03-02T09:32:39;24.10;;;16.50;;
6292;SDS011;3179;54.350;10.102;2024-03-02T09:35:06;23.93;;;16.30;;
6292;SDS011;3179;54.350;10.102;2024-03-02T09:37:34;21.37;;;15.83;;
6292;SDS011;3179;54.350;10.102;2024-03-02T09:40:00;22.30;;;15.00;;
6292;SDS011;3179;54.350;10.102;2024-03-02T09:42:27;21.40;;;15.00;;
6292;SDS011;3179;54.350;10.102;2024-03-02T09:44:55;22.43;;;14.37;;
6292;SDS011;3179;54.350;10.102;2024-03-02T09:47:24;23.43;;;16.10;;
6292;SDS011;3179;54.350;10.102;2024-03-02T09:49:51;23.40;;;16.70;;
6292;SDS011;3179;54.350;10.102;2024-03-02T09:52:18;18.73;;;13.43;;
6292;SDS011;3179;54.350;10.102;2024-03-02T09:54:47;23.57;;;15.13;;
6292;SDS011;3179;54.350;10.102;2024-03-02T09:57:14;19.20;;;13.77;;
6292;SDS011;3179;54.350;10.102;2024-03-02T09:59:41;20.87;;;15.17;;
6292;SDS011;3179;54.350;10.102;2024-03-02T10:02:07;19.57;;;12.33;;
6292;SDS011;3179;54.350;10.102;2024-03-02T10:04:36;16.80;;;12.57;;
6292;SDS011;3179;54.350;10.102;2024-03-02T10:07:09;18.77;;;13.43;;
6292;SDS011;3179;54.350;10.102;2024-03-02T10:09:37;16.17;;;11.60;;
6292;SDS011;3179;54.350;10.102;2024-03-02T10:12:05;20.10;;;14.40;;
6292;SDS011;3179;54.350;10.102;2024-03-02T10:14:33;21.23;;;14.77;;
6292;SDS011;3179;54.350;10.102;2024-03-02T10:17:03;15.73;;;11.83;;
6292;SDS011;3179;54.350;10.102;2024-03-02T10:19:31;18.37;;;13.90;;
6292;SDS011;3179;54.350;10.102;2024-03-02T10:22:02;16.20;;;13.10;;
6292;SDS011;3179;54.350;10.102;2024-03-02T10:24:35;16.40;;;12.57;;
6292;SDS011;3179;54.350;10.102;2024-03-02T10:27:06;22.47;;;14.70;;
6292;SDS011;3179;54.350;10.102;2024-03-02T10:29:36;20.27;;;14.03;;
6292;SDS011;3179;54.350;10.102;2024-03-02T10:32:04;19.60;;;14.07;;
6292;SDS011;3179;54.350;10.102;2024-03-02T10:34:32;17.80;;;13.43;;
6292;SDS011;3179;54.350;10.102;2024-03-02T10:37:00;16.60;;;12.83;;
6292;SDS011;3179;54.350;10.102;2024-03-02T10:39:28;19.23;;;13.90;;
6292;SDS011;3179;54.350;10.102;2024-03-02T10:41:56;17.17;;;12.00;;
6292;SDS011;3179;54.350;10.102;2024-03-02T10:44:24;18.30;;;13.40;;
6292;SDS011;3179;54.350;10.102;2024-03-02T10:46:52;17.37;;;12.47;;
6292;SDS011;3179;54.350;10.102;2024-03-02T10:49:22;18.20;;;12.80;;
6292;SDS011;3179;54.350;10.102;2024-03-02T10:51:50;14.87;;;11.50;;
6292;SDS011;3179;54.350;10.102;2024-03-02T10:54:18;17.30;;;12.60;;
6292;SDS011;3179;54.350;10.102;2024-03-02T10:56:51;16.67;;;12.17;;
6292;SDS011;3179;54.350;10.102;2024-03-02T10:59:21;17.70;;;13.00;;
6292;SDS011;3179;54.350;10.102;2024-03-02T11:01:53;15.20;;;11.63;;
6292;SDS011;3179;54.350;10.102;2024-03-02T11:04:24;16.43;;;12.03;;
6292;SDS011;3179;54.350;10.102;2024-03-02T11:06:52;17.20;;;13.10;;
6292;SDS011;3179;54.350;10.102;2024-03-02T11:09:26;16.77;;;11.90;;
6292;SDS011;3179;54.350;10.102;2024-03-02T11:11:56;21.00;;;14.10;;
6292;SDS011;3179;54.350;10.102;2024-03-02T11:14:29;18.37;;;13.90;;
6292;SDS011;3179;54.350;10.102;2024-03-02T11:16:57;19.47;;;14.23;;
6292;SDS011;3179;54.350;10.102;2024-03-02T11:19:26;20.77;;;14.10;;
6292;SDS011;3179;54.350;10.102;2024-03-02T11:21:54;22.00;;;13.23;;
6292;SDS011;3179;54.350;10.102;2024-03-02T11:24:32;17.10;;;12.43;;
6292;SDS011;3179;54.350;10.102;2024-03-02T11:26:59;17.90;;;13.80;;
6292;SDS011;3179;54.350;10.102;2024-03-02T11:29:44;16.50;;;12.90;;
6292;SDS011;3179;54.350;10.102;2024-03-02T11:32:19;16.80;;;13.20;;
6292;SDS011;3179;54.350;10.102;2024-03-02T11:34:48;19.67;;;13.60;;
6292;SDS011;3179;54.350;10.102;2024-03-02T11:37:16;18.43;;;13.33;;
6292;SDS011;3179;54.350;10.102;2024-03-02T11:39:48;16.63;;;12.67;;
6292;SDS011;3179;54.350;10.102;2024-03-02T11:42:16;16.60;;;12.60;;
6292;SDS011;3179;54.350;10.102;2024-03-02T11:44:44;17.60;;;12.87;;
6292;SDS011;3179;54.350;10.102;2024-03-02T11:47:13;17.43;;;13.03;;
6292;SDS011;3179;54.350;10.102;2024-03-02T11:49:42;16.93;;;13.00;;
6292;SDS011;3179;54.350;10.102;2024-03-02T11:52:10;16.07;;;12.70;;
6292;SDS011;3179;54.350;10.102;2024-03-02T11:54:38;17.60;;;12.53;;
6292;SDS011;3179;54.350;10.102;2024-03-02T11:57:13;17.50;;;12.47;;
6292;SDS011;3179;54.350;10.102;2024-03-02T11:59:40;16.23;;;12.57;;
6292;SDS011;3179;54.350;10.102;2024-03-02T12:02:12;21.43;;;13.50;;
6292;SDS011;3179;54.350;10.102;2024-03-02T12:04:41;15.93;;;13.20;;
6292;SDS011;3179;54.350;10.102;2024-03-02T12:07:10;16.70;;;11.60;;
6292;SDS011;3179;54.350;10.102;2024-03-02T12:09:37;16.70;;;11.67;;
6292;SDS011;3179;54.350;10.102;2024-03-02T12:12:05;19.50;;;14.53;;
6292;SDS011;3179;54.350;10.102;2024-03-02T12:14:35;17.60;;;11.40;;
6292;SDS011;3179;54.350;10.102;2024-03-02T12:17:03;15.07;;;12.07;;
6292;SDS011;3179;54.350;10.102;2024-03-02T12:19:31;15.27;;;12.00;;
6292;SDS011;3179;54.350;10.102;2024-03-02T12:21:58;16.83;;;13.10;;
6292;SDS011;3179;54.350;10.102;2024-03-02T12:24:26;19.50;;;13.50;;
6292;SDS011;3179;54.350;10.102;2024-03-02T12:26:54;19.50;;;12.90;;
6292;SDS011;3179;54.350;10.102;2024-03-02T12:29:21;16.50;;;12.37;;
6292;SDS011;3179;54.350;10.102;2024-03-02T12:31:50;16.83;;;12.23;;
6292;SDS011;3179;54.350;10.102;2024-03-02T12:34:18;15.97;;;11.40;;
6292;SDS011;3179;54.350;10.102;2024-03-02T12:36:45;20.17;;;13.80;;
6292;SDS011;3179;54.350;10.102;2024-03-02T12:39:17;13.80;;;10.67;;
6292;SDS011;3179;54.350;10.102;2024-03-02T12:41:45;15.30;;;11.13;;
6292;SDS011;3179;54.350;10.102;2024-03-02T12:44:15;12.93;;;11.00;;
6292;SDS011;3179;54.350;10.102;2024-03-02T12:46:42;15.13;;;11.97;;
6292;SDS011;3179;54.350;10.102;2024-03-02T12:49:11;17.57;;;12.37;;
6292;SDS011;3179;54.350;10.102;2024-03-02T12:51:39;15.80;;;11.73;;
6292;SDS011;3179;54.350;10.102;2024-03-02T12:54:07;17.17;;;12.10;;
6292;SDS011;3179;54.350;10.102;2024-03-02T12:56:35;14.93;;;12.17;;
6292;SDS011;3179;54.350;10.102;2024-03-02T12:59:02;13.97;;;11.03;;
6292;SDS011;3179;54.350;10.102;2024-03-02T13:01:29;17.00;;;12.30;;
6292;SDS011;3179;54.350;10.102;2024-03-02T13:03:57;17.93;;;13.10;;
6292;SDS011;3179;54.350;10.102;2024-03-02T13:06:26;17.90;;;12.20;;
6292;SDS011;3179;54.350;10.102;2024-03-02T13:08:54;15.37;;;11.93;;
6292;SDS011;3179;54.350;10.102;2024-03-02T13:11:21;14.27;;;11.40;;
6292;SDS011;3179;54.350;10.102;2024-03-02T13:13:49;18.23;;;11.37;;
6292;SDS011;3179;54.350;10.102;2024-03-02T13:16:16;14.40;;;11.03;;
6292;SDS011;3179;54.350;10.102;2024-03-02T13:18:45;13.90;;;11.40;;
6292;SDS011;3179;54.350;10.102;2024-03-02T13:21:12;19.53;;;12.87;;
6292;SDS011;3179;54.350;10.102;2024-03-02T13:23:41;14.47;;;11.70;;
6292;SDS011;3179;54.350;10.102;2024-03-02T13:26:07;16.10;;;11.40;;
6292;SDS011;3179;54.350;10.102;2024-03-02T13:28:36;16.77;;;11.90;;
6292;SDS011;3179;54.350;10.102;2024-03-02T13:31:04;19.20;;;13.03;;
6292;SDS011;3179;54.350;10.102;2024-03-02T13:33:31;18.37;;;12.93;;
6292;SDS011;3179;54.350;10.102;2024-03-02T13:35:58;16.80;;;12.53;;
6292;SDS011;3179;54.350;10.102;2024-03-02T13:38:26;18.63;;;13.93;;
6292;SDS011;3179;54.350;10.102;2024-03-02T13:40:54;20.00;;;14.00;;
6292;SDS011;3179;54.350;10.102;2024-03-02T13:43:21;19.43;;;14.70;;
6292;SDS011;3179;54.350;10.102;2024-03-02T13:45:49;17.93;;;13.00;;
6292;SDS011;3179;54.350;10.102;2024-03-02T13:48:17;20.33;;;14.13;;
6292;SDS011;3179;54.350;10.102;2024-03-02T13:50:44;18.50;;;13.47;;
6292;SDS011;3179;54.350;10.102;2024-03-02T13:53:11;18.83;;;13.00;;
6292;SDS011;3179;54.350;10.102;2024-03-02T13:55:38;19.33;;;13.60;;
6292;SDS011;3179;54.350;10.102;2024-03-02T13:58:08;13.93;;;11.43;;
6292;SDS011;3179;54.350;10.102;2024-03-02T14:00:35;18.80;;;11.93;;
6292;SDS011;3179;54.350;10.102;2024-03-02T14:03:03;15.77;;;12.30;;
6292;SDS011;3179;54.350;10.102;2024-03-02T14:05:32;16.20;;;11.10;;
6292;SDS011;3179;54.350;10.102;2024-03-02T14:07:59;13.70;;;10.50;;
6292;SDS011;3179;54.350;10.102;2024-03-02T14:10:26;18.70;;;12.80;;
6292;SDS011;3179;54.350;10.102;2024-03-02T14:12:54;14.17;;;10.93;;
6292;SDS011;3179;54.350;10.102;2024-03-02T14:15:22;18.27;;;11.73;;
6292;SDS011;3179;54.350;10.102;2024-03-02T14:17:50;17.40;;;12.03;;
6292;SDS011;3179;54.350;10.102;2024-03-02T14:20:17;16.23;;;12.50;;
6292;SDS011;3179;54.350;10.102;2024-03-02T14:22:47;17.90;;;12.53;;
6292;SDS011;3179;54.350;10.102;2024-03-02T14:25:14;18.40;;;12.10;;
6292;SDS011;3179;54.350;10.102;2024-03-02T14:27:41;15.73;;;12.27;;
6292;SDS011;3179;54.350;10.102;2024-03-02T14:30:08;14.53;;;10.93;;
6292;SDS011;3179;54.350;10.102;2024-03-02T14:32:37;14.90;;;10.77;;
6292;SDS011;3179;54.350;10.102;2024-03-02T14:35:04;15.57;;;12.20;;
6292;SDS011;3179;54.350;10.102;2024-03-02T14:37:34;15.13;;;12.50;;
6292;SDS011;3179;54.350;10.102;2024-03-02T14:40:01;13.30;;;10.93;;